Caraquet, Canada
Current Conditions -  °F | °C
As of 8:00 AM on Saturday 25 Oct 2014 (Local Time) from CZBF Reporting Station
Light Rain Light Rain  
Wind Chill:   Ceiling: 500
Heat Index:   Visibility: 3mi
Dew Point:   Wind: 6mph
Humidity: 100%   Direction: 10°N
Pressure: 29.62"   Gusts: NA
Location:  47.78°N, 64.95°W
Report Text: CZBF 251100Z 01005KT 330V040 3SM -RA BR OVC005 05/05 A2962 RMK SC8 VIS 1 3/4 E SLP032
Loading
Personal Weather Stations






























Interactive Weather Map
Tropical Storm Tracking
New forecast layout! Learn more

10-Day Weather Forecast

Advertisements
Track Severe Weather on mobile